createdAt,value
2023-02-07T00:07:02.295Z,-1.54
2023-02-07T00:27:02.302Z,-1.64
2023-02-07T00:47:02.311Z,-1.63
2023-02-07T01:07:02.308Z,-1.77
2023-02-07T01:27:02.322Z,-1.91
2023-02-07T01:47:02.318Z,-1.94
2023-02-07T02:07:02.306Z,-1.95
2023-02-07T02:27:02.356Z,-2.01
2023-02-07T02:47:02.431Z,-2.04
2023-02-07T03:07:02.330Z,-2.19
2023-02-07T03:27:02.310Z,-2.29
2023-02-07T03:47:02.338Z,-1.98
2023-02-07T04:07:02.338Z,-2.02
2023-02-07T04:27:02.359Z,-2.25
2023-02-07T04:47:02.342Z,-2.15
2023-02-07T05:07:02.335Z,-2.25
2023-02-07T05:27:02.358Z,-2.37
2023-02-07T05:47:02.345Z,-2.59
2023-02-07T06:07:02.380Z,-2.53
2023-02-07T06:27:02.350Z,-2.61
2023-02-07T06:47:02.398Z,-2.66
2023-02-07T07:07:02.425Z,-2.80
2023-02-07T07:27:02.486Z,-2.70
2023-02-07T07:47:02.548Z,-2.64
2023-02-07T08:07:02.375Z,-2.50
2023-02-07T08:27:02.379Z,-2.37
2023-02-07T08:47:02.435Z,-2.00
2023-02-07T09:07:02.447Z,-1.65
2023-02-07T09:27:02.540Z,-1.28
2023-02-07T09:47:02.547Z,-0.95
2023-02-07T10:07:02.555Z,-0.57
2023-02-07T10:27:02.385Z,-0.34
2023-02-07T10:47:02.579Z,-0.05
2023-02-07T11:07:02.396Z,0.20
2023-02-07T11:27:02.575Z,0.46
2023-02-07T11:47:02.574Z,0.65
2023-02-07T12:07:02.560Z,0.65
2023-02-07T12:27:02.552Z,0.83
2023-02-07T12:47:02.397Z,0.90
2023-02-07T13:07:02.374Z,1.06
2023-02-07T13:27:02.525Z,1.21
2023-02-07T13:47:02.537Z,1.21
2023-02-07T14:07:02.555Z,1.16
2023-02-07T14:27:02.583Z,1.01
2023-02-07T14:47:02.365Z,0.81
2023-02-07T15:07:02.530Z,0.61
2023-02-07T15:27:02.669Z,0.51
2023-02-07T15:47:02.545Z,0.39
2023-02-07T16:07:02.517Z,0.28
2023-02-07T16:27:02.362Z,0.13
2023-02-07T16:47:02.473Z,0.01
2023-02-07T17:07:02.359Z,-0.09
2023-02-07T17:27:02.580Z,-0.31
2023-02-07T17:47:02.561Z,-0.54
2023-02-07T18:07:02.605Z,-0.54
2023-02-07T18:27:02.531Z,-0.72
2023-02-07T18:47:02.512Z,-0.85
2023-02-07T19:07:02.370Z,-1.05
2023-02-07T19:27:02.490Z,-1.18
2023-02-07T19:47:02.506Z,-1.30
2023-02-07T20:07:02.619Z,-1.39
2023-02-07T20:27:02.609Z,-1.35
2023-02-07T20:47:02.435Z,-1.42
2023-02-07T21:07:02.464Z,-1.48
2023-02-07T21:27:02.366Z,-1.69
2023-02-07T21:47:02.452Z,-1.78
2023-02-07T22:07:02.536Z,-1.94
2023-02-07T22:27:02.509Z,-1.94
2023-02-07T22:47:02.501Z,-2.01
2023-02-07T23:07:02.368Z,-2.22
2023-02-07T23:27:02.379Z,-2.44
2023-02-07T23:47:02.538Z,-2.69
